Skip Navigation LinksHome page > Weather > Current weather Skip Navigation Links

Current Weather

Waukegan Regional, Waukegan, Ill.

For information only: do not use for flight planning or navigation.
Latest weather
Observation time Saturday, January 23, 2021 8:55 PM CST
Local time Saturday, January 23, 2021 9:37 PM CST
Flight conditions Visual Meteorological Conditions
Winds
Wind direction South-Southeast (160°)
Wind speed 7 mph
Visibility 10 mi.
Sky condition
Ceiling 8,500 ft. overcast
Cloud layer overcast 8,500 ft.
Temperature 29°F
Dewpoint 17°F
Altimeter 30.24 in.Hg
Pressure change last 3 hours0.04 in.Hg
Pressure falling more quickly
Derived measurements
Relative humidity 61%
Wind chill 22°F
Density altitude -1635 ft.
Sea-level pressure 30.29 in.Hg
Remarks
Fully automated report.
Automated weather observing station with precipitation discriminator.
METAR KUGN 240255Z AUTO 16006KT 10SM OVC085 M02/M08 A3024 RMK AO2 SLP258 T10171083 58014

Settings

Location code

InnerDrive.Weather 4.0.6770.0 Release CLR 4.0.30319.42000
Copyright ©2018 Inner Drive Technology. All rights reserved. Portions Copyright ©1986-2018 David Braverman.

Find weather

Site navigation


Skip Navigation Links

Place info

Page info

PayPal - The safer, easier way to pay online!

Return home.

Copyright ©2021 Inner Drive Technology. Purveyors of fine, hand-crafted computer software. Page printed 2021-01-24T03:37:26 UTC.